Friday, November 24, 2017, 12:20 AM GMT
Back to Local

CYFC, Fredericton, N. B.

Location: , , Canada Lat: 45.867
Local Time: 12:20 AM GMT ( 0:20 GMT) Lon: -66.533
Time Zone: GMT Elev: 55 ft

Show me the last for .
Show Coded

Time T Td Feel RH Dir Speed Gust Alt SLP Vis Weather Sky Remarks
2017-11-24 00:00 27 18 20 68 250° 6 - 29.88 29.89 9 OVC130 None
2017-11-23 23:00 27 19 21 73 230° 5 - 29.88 29.88 9 OVC130 None
2017-11-23 22:00 27 18 21 68 290° 5 - 29.89 29.89 9 SCT029 OVC140 None
2017-11-23 21:00 27 18 13 68 290° 8 20 29.87 29.88 9 FEW028 BKN150 None
2017-11-23 20:00 27 18 13 68 300° 9 21 29.85 29.86 9 CLR None
2017-11-23 19:00 28 19 22 68 270° 6 - 29.84 29.85 9 BKN025 None
2017-11-23 18:00 30 18 17 58 260° 14 21 29.83 29.84 9 FEW029 None
2017-11-23 17:00 30 19 17 63 300° 12 21 29.83 29.83 9 OVC027 None
2017-11-23 16:00 28 19 15 68 300° 13 21 29.85 29.85 9 BKN027 None
2017-11-23 15:00 28 19 13 68 290° 13 29 29.85 29.85 9 FEW027 Pressure rising rapidly
2017-11-23 14:00 28 19 13 68 300° 15 28 29.81 29.82 9 SCT023 None
2017-11-23 13:25 27 21 12 79 300° 18 24 29.80 29.81 9 BKN023 None
2017-11-23 13:00 27 19 10 73 280° 13 30 29.80 29.80 9 FEW021 None
2017-11-23 12:00 28 21 13 74 310° 16 28 29.77 29.77 9 CLR Pressure rising rapidly
2017-11-23 11:31 28 25 14 86 290° 15 23 29.74 29.75 9 SCT020 None
2017-11-23 11:19 30 25 17 80 300° 9 23 29.73 29.74 9 BKN020 Pressure rising rapidly
2017-11-23 11:00 30 27 16 86 290° 14 28 29.71 29.72 9 CLR None
2017-11-23 10:00 32 28 19 86 280° 17 25 29.67 29.68 9 CLR Pressure rising rapidly
2017-11-23 09:35 32 30 17 92 290° 18 31 29.65 29.66 9 FEW017 SCT022 None
2017-11-23 09:00 34 30 20 86 280° 16 31 29.63 29.64 9 BKN017 OVC023 None
2017-11-23 08:00 36 34 22 93 300° 15 35 29.59 29.60 9 OVC017 None
2017-11-23 07:52 36 34 21 93 300° 24 36 29.59 29.60 9 OVC017 None
2017-11-23 07:23 36 34 23 93 300° 18 26 29.57 29.58 9 -RA BKN017 OVC037 None
2017-11-23 07:00 36 34 23 93 300° 15 28 29.56 29.56 9 -RA FEW016 OVC032 None
2017-11-23 06:34 36 36 24 100 300° 13 22 29.55 29.55 9 -RA SCT016 BKN026 OVC050 None
2017-11-23 06:00 36 36 25 100 310° 10 17 29.55 29.56 9 -RA FEW009 OVC014 None
2017-11-23 05:00 36 36 25 100 310° 12 21 29.59 29.60 9 -RA BKN010 BKN030 OVC039 None
2017-11-23 04:58 36 36 24 100 320° 14 23 29.59 29.59 9 -RA BKN010 BKN030 OVC039 None
2017-11-23 04:46 37 36 26 93 320° 16 24 29.59 29.59 6 -RA BR BKN010 OVC039 None
2017-11-23 04:38 37 36 26 93 330° 18 24 29.58 29.59 4 -RA BR BKN012 OVC037 None
2017-11-23 04:29 37 36 27 93 330° 16 22 29.58 29.59 5 -RA BR SCT012 OVC037 Pressure falling rapidly
2017-11-23 04:00 37 36 27 93 330° 15 21 29.60 29.61 9 -RA OVC035 None
2017-11-23 03:22 37 37 30 100 330° 10 - 29.62 29.63 8 RA SCT007 SCT011 OVC037 Pressure falling rapidly
2017-11-23 03:00 37 37 31 100 320° 8 - 29.65 29.66 8 RA OVC007 None
2017-11-23 02:23 37 37 30 100 330° 10 - 29.66 29.66 8 RA BKN009 OVC033 None
2017-11-23 02:00 39 37 33 93 330° 9 - 29.66 29.67 9 RA OVC030 None
2017-11-23 01:22 39 39 30 100 330° 12 18 29.70 29.70 8 RA OVC026 None
2017-11-23 01:00 39 39 29 100 330° 15 21 29.71 29.72 7 RA OVC022 None
2017-11-23 00:34 39 39 32 100 330° 13 - 29.72 29.73 7 -RA BKN024 BKN050 OVC060 None

Support USWX by starting your Amazon purchase here.